Time;durP1;ratioP1;P1;durP2;ratioP2;P2;SDS_P1;SDS_P2;PMS_P1;PMS_P2;Temp;Humidity;BMP_temperature;BMP_pressure;BME280_temperature;BME280_humidity;BME280_pressure;Samples;Min_cycle;Max_cycle;Signal;HPM_P1;HPM_P2
2023/11/17 00:00:01;;;;;;;2.10;1.23;;;;;;;;;;5105573;28;20741;-79
2023/11/17 00:02:29;;;;;;;1.93;1.00;;;;;;;;;;5111694;28;20850;-79
2023/11/17 00:04:56;;;;;;;2.77;1.40;;;;;;;;;;5107635;28;20459;-79
2023/11/17 00:07:28;;;;;;;2.37;1.10;;;;;;;;;;5113197;28;20483;-80
2023/11/17 00:09:56;;;;;;;3.13;1.57;;;;;;;;;;5109521;28;20506;-79
2023/11/17 00:12:24;;;;;;;3.00;1.37;;;;;;;;;;5111638;28;20864;-79
2023/11/17 00:14:51;;;;;;;2.17;1.40;;;;;;;;;;5107141;28;20448;-80
2023/11/17 00:17:19;;;;;;;3.37;1.80;;;;;;;;;;5109487;28;20443;-80
2023/11/17 00:19:47;;;;;;;2.53;1.60;;;;;;;;;;5106669;28;20529;-80
2023/11/17 00:22:14;;;;;;;2.50;1.40;;;;;;;;;;5109136;28;20452;-79
2023/11/17 00:24:44;;;;;;;3.20;1.67;;;;;;;;;;5108943;28;20766;-79
2023/11/17 00:27:11;;;;;;;3.80;1.40;;;;;;;;;;5108554;28;20488;-79
2023/11/17 00:29:39;;;;;;;2.23;1.37;;;;;;;;;;5108157;28;20733;-80
2023/11/17 00:32:07;;;;;;;2.23;1.40;;;;;;;;;;5107042;28;20476;-80
2023/11/17 00:34:35;;;;;;;2.40;1.47;;;;;;;;;;5109594;28;20463;-79
2023/11/17 00:37:07;;;;;;;4.83;1.50;;;;;;;;;;5109611;28;20497;-79
2023/11/17 00:39:35;;;;;;;2.10;1.27;;;;;;;;;;5110884;28;20467;-79
2023/11/17 00:42:04;;;;;;;2.80;1.67;;;;;;;;;;5108394;28;20459;-79
2023/11/17 00:44:32;;;;;;;2.77;1.47;;;;;;;;;;5110013;28;20443;-79
2023/11/17 00:46:59;;;;;;;2.67;1.30;;;;;;;;;;5107304;28;20471;-79
2023/11/17 00:49:27;;;;;;;2.73;1.50;;;;;;;;;;5110065;28;20553;-80
2023/11/17 00:51:55;;;;;;;2.50;1.40;;;;;;;;;;5107715;28;20734;-79
2023/11/17 00:54:26;;;;;;;2.60;1.20;;;;;;;;;;5111194;28;20495;-79
2023/11/17 00:56:55;;;;;;;2.67;1.40;;;;;;;;;;5108477;28;20459;-79
2023/11/17 00:59:24;;;;;;;2.77;1.27;;;;;;;;;;5106356;28;20452;-81
2023/11/17 01:01:52;;;;;;;4.03;1.57;;;;;;;;;;5107557;28;20875;-80
2023/11/17 01:04:20;;;;;;;2.67;1.60;;;;;;;;;;5108473;28;20465;-80
2023/11/17 01:06:53;;;;;;;2.43;1.50;;;;;;;;;;5107009;28;20483;-80
2023/11/17 01:09:21;;;;;;;2.30;1.13;;;;;;;;;;5109763;28;20467;-80
2023/11/17 01:11:48;;;;;;;2.43;1.43;;;;;;;;;;5108801;28;20458;-80
2023/11/17 01:14:16;;;;;;;2.33;1.23;;;;;;;;;;5109032;28;20459;-80
2023/11/17 01:16:46;;;;;;;2.10;1.00;;;;;;;;;;5109338;28;20432;-81
2023/11/17 01:19:13;;;;;;;2.97;1.10;;;;;;;;;;5110471;28;20466;-80
2023/11/17 01:21:41;;;;;;;2.60;1.50;;;;;;;;;;5107419;28;20532;-81
2023/11/17 01:24:09;;;;;;;2.60;1.40;;;;;;;;;;5107842;28;20711;-80
2023/11/17 01:26:40;;;;;;;2.53;1.07;;;;;;;;;;5105378;28;20522;-79
2023/11/17 01:29:08;;;;;;;2.97;1.53;;;;;;;;;;5109715;28;20479;-81
2023/11/17 01:31:36;;;;;;;3.33;1.40;;;;;;;;;;5107655;28;20439;-80
2023/11/17 01:34:06;;;;;;;2.10;1.10;;;;;;;;;;5108808;28;20485;-81
2023/11/17 01:36:33;;;;;;;2.00;1.10;;;;;;;;;;5108487;28;20483;-80
2023/11/17 01:39:01;;;;;;;2.20;1.10;;;;;;;;;;5101732;28;20459;-79
2023/11/17 01:41:28;;;;;;;2.10;1.00;;;;;;;;;;5096827;28;20444;-80
2023/11/17 01:43:59;;;;;;;2.73;1.37;;;;;;;;;;5105804;28;20452;-80
2023/11/17 01:46:31;;;;;;;2.30;1.20;;;;;;;;;;5106324;28;20558;-80
2023/11/17 01:48:59;;;;;;;2.10;1.00;;;;;;;;;;5106114;28;20466;-80
2023/11/17 01:51:31;;;;;;;2.83;1.27;;;;;;;;;;5106001;28;20462;-80
2023/11/17 01:54:00;;;;;;;2.93;1.47;;;;;;;;;;5105221;28;20455;-80
2023/11/17 01:56:31;;;;;;;5.07;1.20;;;;;;;;;;5106418;28;20489;-80
2023/11/17 01:58:59;;;;;;;3.23;1.23;;;;;;;;;;5106367;28;20470;-80
2023/11/17 02:01:34;;;;;;;2.70;0.80;;;;;;;;;;5107765;28;20459;-80
2023/11/17 02:04:02;;;;;;;4.90;1.20;;;;;;;;;;5108611;28;20468;-77
2023/11/17 02:06:40;;;;;;;2.40;1.30;;;;;;;;;;5106699;28;20480;-80
2023/11/17 02:09:14;;;;;;;1.90;1.00;;;;;;;;;;5106075;28;20517;-80
2023/11/17 02:11:45;;;;;;;2.07;0.87;;;;;;;;;;5105565;28;20485;-80
2023/11/17 02:14:18;;;;;;;3.00;1.37;;;;;;;;;;5106898;28;20439;-81
2023/11/17 02:16:46;;;;;;;2.50;1.07;;;;;;;;;;5106425;28;20513;-80
2023/11/17 02:19:18;;;;;;;2.57;1.20;;;;;;;;;;5108199;28;20483;-80
2023/11/17 02:21:49;;;;;;;1.90;1.00;;;;;;;;;;5107269;28;20451;-80
2023/11/17 02:24:17;;;;;;;2.50;1.37;;;;;;;;;;5109374;28;20550;-79
2023/11/17 02:26:59;;;;;;;2.10;1.20;;;;;;;;;;5106860;28;20494;-79
2023/11/17 02:29:37;;;;;;;2.60;1.40;;;;;;;;;;5107026;28;20522;-79
2023/11/17 02:32:05;;;;;;;2.30;1.30;;;;;;;;;;5106513;28;20475;-79
2023/11/17 02:34:33;;;;;;;2.30;1.27;;;;;;;;;;5106657;28;20502;-79
2023/11/17 02:37:05;;;;;;;2.53;1.27;;;;;;;;;;5105983;28;20525;-79
2023/11/17 02:39:38;;;;;;;3.10;0.90;;;;;;;;;;5108760;28;20509;-79
2023/11/17 02:42:11;;;;;;;1.80;1.10;;;;;;;;;;5110248;28;20452;-78
2023/11/17 02:44:41;;;;;;;1.80;0.83;;;;;;;;;;5112001;28;20455;-79
2023/11/17 02:47:19;;;;;;;2.27;1.10;;;;;;;;;;5110941;28;20487;-80
2023/11/17 02:49:52;;;;;;;2.00;1.17;;;;;;;;;;5113061;28;20495;-80
2023/11/17 02:52:23;;;;;;;2.00;1.17;;;;;;;;;;5112477;28;20459;-79
2023/11/17 02:54:52;;;;;;;2.10;0.90;;;;;;;;;;5112037;28;20451;-80
2023/11/17 02:57:20;;;;;;;2.10;1.30;;;;;;;;;;5111084;28;20458;-79
2023/11/17 02:59:50;;;;;;;2.07;1.03;;;;;;;;;;5108894;28;20512;-79
2023/11/17 03:02:19;;;;;;;1.80;0.80;;;;;;;;;;5108613;28;20467;-79
2023/11/17 03:04:46;;;;;;;3.80;0.70;;;;;;;;;;5108195;28;20428;-81
2023/11/17 03:07:15;;;;;;;2.00;0.90;;;;;;;;;;5110628;28;20483;-79
2023/11/17 03:09:42;;;;;;;1.90;1.00;;;;;;;;;;5110303;28;20782;-81
2023/11/17 03:12:10;;;;;;;2.80;1.10;;;;;;;;;;5110876;28;20465;-79
2023/11/17 03:14:39;;;;;;;2.43;1.47;;;;;;;;;;5110313;28;20455;-80
2023/11/17 03:17:09;;;;;;;1.93;0.97;;;;;;;;;;5110195;28;20501;-80
2023/11/17 03:19:38;;;;;;;2.50;1.30;;;;;;;;;;5109276;28;20447;-79
2023/11/17 03:22:06;;;;;;;1.90;0.90;;;;;;;;;;5111798;28;20436;-80
2023/11/17 03:24:34;;;;;;;2.10;1.27;;;;;;;;;;5109143;28;20462;-79
2023/11/17 03:27:02;;;;;;;2.00;1.30;;;;;;;;;;5112088;28;20483;-80
2023/11/17 03:29:31;;;;;;;2.87;1.57;;;;;;;;;;5108439;28;20455;-79
2023/11/17 03:32:00;;;;;;;3.17;1.43;;;;;;;;;;5112827;28;20479;-81
2023/11/17 03:34:31;;;;;;;2.93;1.47;;;;;;;;;;5109768;28;20486;-79
2023/11/17 03:37:03;;;;;;;2.40;1.50;;;;;;;;;;5112470;28;20448;-79
2023/11/17 03:39:32;;;;;;;2.33;1.20;;;;;;;;;;5107488;28;21068;-79
2023/11/17 03:42:01;;;;;;;2.10;1.00;;;;;;;;;;5109108;28;20471;-79
2023/11/17 03:44:28;;;;;;;1.97;1.23;;;;;;;;;;5108201;28;20526;-80
2023/11/17 03:46:56;;;;;;;2.47;1.50;;;;;;;;;;5107994;28;20521;-78
2023/11/17 03:49:24;;;;;;;2.57;1.67;;;;;;;;;;5107866;28;20444;-78
2023/11/17 03:51:54;;;;;;;2.50;1.63;;;;;;;;;;5106977;28;20911;-78
2023/11/17 03:54:22;;;;;;;2.70;1.60;;;;;;;;;;5108117;28;20443;-80
2023/11/17 03:56:50;;;;;;;1.80;0.90;;;;;;;;;;5108253;28;20440;-80
2023/11/17 03:59:18;;;;;;;2.77;1.60;;;;;;;;;;5107483;28;20447;-80
2023/11/17 04:01:46;;;;;;;2.20;1.40;;;;;;;;;;5106740;28;20455;-81
2023/11/17 04:04:17;;;;;;;2.73;1.73;;;;;;;;;;5104808;28;20428;-78
2023/11/17 04:06:45;;;;;;;2.90;1.80;;;;;;;;;;5106692;28;20505;-79
2023/11/17 04:09:16;;;;;;;3.17;2.07;;;;;;;;;;5105398;28;20471;-80
2023/11/17 04:11:43;;;;;;;2.33;1.50;;;;;;;;;;5105205;28;20739;-79
2023/11/17 04:14:11;;;;;;;2.87;1.50;;;;;;;;;;5109692;28;20436;-80
2023/11/17 04:16:42;;;;;;;2.20;0.87;;;;;;;;;;5104593;28;20466;-80
2023/11/17 04:19:14;;;;;;;2.03;1.23;;;;;;;;;;5111611;28;20519;-79
2023/11/17 04:21:41;;;;;;;2.30;1.33;;;;;;;;;;5108474;28;20479;-80
2023/11/17 04:24:09;;;;;;;2.67;1.30;;;;;;;;;;5108140;28;20443;-80
2023/11/17 04:26:41;;;;;;;2.10;1.10;;;;;;;;;;5106171;28;20475;-79
2023/11/17 04:29:09;;;;;;;2.60;1.60;;;;;;;;;;5107479;28;20452;-79
2023/11/17 04:31:37;;;;;;;2.87;1.33;;;;;;;;;;5106612;28;20493;-79
2023/11/17 04:34:05;;;;;;;2.40;1.43;;;;;;;;;;5103599;28;20497;-80
2023/11/17 04:36:33;;;;;;;2.50;1.63;;;;;;;;;;5104362;28;20443;-80
2023/11/17 04:39:01;;;;;;;2.13;1.37;;;;;;;;;;5110474;28;20443;-79
2023/11/17 04:41:31;;;;;;;2.73;1.77;;;;;;;;;;5107327;28;20463;-80
2023/11/17 04:44:00;;;;;;;2.10;1.30;;;;;;;;;;5106174;28;20727;-79
2023/11/17 04:46:31;;;;;;;3.50;1.83;;;;;;;;;;5100915;28;20895;-79
2023/11/17 04:48:59;;;;;;;3.03;1.90;;;;;;;;;;5107520;28;20564;-82
2023/11/17 04:51:26;;;;;;;3.20;2.83;;;;;;;;;;5105954;28;20440;-81
2023/11/17 04:53:54;;;;;;;3.63;2.00;;;;;;;;;;5104854;28;20910;-80
2023/11/17 04:56:21;;;;;;;2.50;1.93;;;;;;;;;;5103379;28;20455;-80
2023/11/17 04:58:49;;;;;;;3.60;2.50;;;;;;;;;;5106010;28;20434;-80
2023/11/17 05:01:18;;;;;;;3.07;2.23;;;;;;;;;;5103017;28;20447;-79
2023/11/17 05:03:46;;;;;;;2.87;1.83;;;;;;;;;;5104213;28;20470;-79
2023/11/17 05:06:13;;;;;;;2.40;1.40;;;;;;;;;;5103474;28;20448;-79
2023/11/17 05:08:41;;;;;;;2.83;1.50;;;;;;;;;;5106572;28;20491;-79
2023/11/17 05:11:09;;;;;;;3.30;2.53;;;;;;;;;;5105154;28;20543;-80
2023/11/17 05:13:37;;;;;;;3.10;2.13;;;;;;;;;;5106329;28;20480;-80
2023/11/17 05:16:05;;;;;;;4.03;2.77;;;;;;;;;;5105903;28;20448;-80
2023/11/17 05:18:34;;;;;;;3.17;2.70;;;;;;;;;;5106954;28;20462;-80
2023/11/17 05:21:05;;;;;;;5.20;2.73;;;;;;;;;;5106665;28;20451;-81
2023/11/17 05:23:34;;;;;;;2.80;2.40;;;;;;;;;;5104733;28;20466;-81
2023/11/17 05:26:02;;;;;;;4.23;2.53;;;;;;;;;;5102304;28;20676;-79
2023/11/17 05:28:30;;;;;;;3.17;2.17;;;;;;;;;;5103983;28;20539;-79
2023/11/17 05:31:01;;;;;;;3.47;2.83;;;;;;;;;;5101094;28;20455;-80
2023/11/17 05:33:29;;;;;;;3.67;2.33;;;;;;;;;;5105267;28;20462;-79
2023/11/17 05:35:58;;;;;;;3.27;2.27;;;;;;;;;;5101850;28;20543;-79
2023/11/17 05:38:26;;;;;;;3.57;2.60;;;;;;;;;;5105986;28;20448;-80
2023/11/17 05:40:56;;;;;;;4.00;3.17;;;;;;;;;;5103516;28;20471;-81
2023/11/17 05:43:24;;;;;;;2.87;1.90;;;;;;;;;;5103619;28;20847;-80
2023/11/17 05:45:53;;;;;;;2.83;2.33;;;;;;;;;;5108093;28;20483;-79
2023/11/17 05:48:21;;;;;;;3.10;2.80;;;;;;;;;;5108398;28;20483;-80
2023/11/17 05:50:49;;;;;;;3.10;2.17;;;;;;;;;;5106687;28;20607;-80
2023/11/17 05:53:18;;;;;;;3.30;2.77;;;;;;;;;;5102750;28;20456;-80
2023/11/17 05:55:46;;;;;;;4.20;2.33;;;;;;;;;;5100536;28;20447;-79
2023/11/17 05:58:14;;;;;;;5.03;3.17;;;;;;;;;;5100149;28;20530;-79
2023/11/17 06:00:42;;;;;;;4.63;2.60;;;;;;;;;;5100608;28;20452;-81
2023/11/17 06:03:10;;;;;;;4.17;2.90;;;;;;;;;;5103543;28;20451;-78
2023/11/17 06:05:37;;;;;;;3.47;2.70;;;;;;;;;;5101240;28;20440;-79
2023/11/17 06:08:05;;;;;;;3.10;2.37;;;;;;;;;;5099463;28;20531;-80
2023/11/17 06:10:34;;;;;;;4.03;2.90;;;;;;;;;;5101178;28;20448;-80
2023/11/17 06:13:02;;;;;;;3.50;2.40;;;;;;;;;;5100894;28;20435;-79
2023/11/17 06:15:31;;;;;;;5.73;3.20;;;;;;;;;;5099173;28;20827;-79
2023/11/17 06:17:58;;;;;;;3.90;2.70;;;;;;;;;;5099988;28;20443;-79
2023/11/17 06:20:28;;;;;;;3.33;2.40;;;;;;;;;;5101444;28;20451;-79
2023/11/17 06:22:55;;;;;;;3.40;2.60;;;;;;;;;;5101468;28;20704;-79
2023/11/17 06:25:25;;;;;;;5.00;3.40;;;;;;;;;;5098790;28;20455;-79
2023/11/17 06:27:54;;;;;;;3.03;2.13;;;;;;;;;;5098802;28;20483;-80
2023/11/17 06:30:22;;;;;;;4.13;3.00;;;;;;;;;;5096366;28;20455;-79
2023/11/17 06:32:49;;;;;;;4.10;3.27;;;;;;;;;;5094644;28;20491;-79
2023/11/17 06:35:17;;;;;;;4.67;3.20;;;;;;;;;;5094900;28;20635;-79
2023/11/17 06:37:45;;;;;;;4.27;3.60;;;;;;;;;;5098443;28;20447;-79
2023/11/17 06:40:16;;;;;;;5.13;3.77;;;;;;;;;;5094860;28;20675;-79
2023/11/17 06:42:44;;;;;;;5.00;3.20;;;;;;;;;;5094840;28;20458;-79
2023/11/17 06:45:13;;;;;;;4.90;3.53;;;;;;;;;;5096370;28;20767;-78
2023/11/17 06:47:43;;;;;;;4.90;3.50;;;;;;;;;;5097822;28;20463;-80
2023/11/17 06:50:15;;;;;;;3.50;2.57;;;;;;;;;;5098108;28;20446;-80
2023/11/17 06:52:44;;;;;;;5.83;3.73;;;;;;;;;;5097310;28;20451;-80
2023/11/17 06:55:11;;;;;;;4.97;3.50;;;;;;;;;;5097708;28;20673;-79
2023/11/17 06:57:43;;;;;;;4.60;3.00;;;;;;;;;;5101859;28;20456;-80
2023/11/17 07:00:12;;;;;;;4.43;2.93;;;;;;;;;;5099094;28;20458;-80
2023/11/17 07:02:43;;;;;;;4.80;3.47;;;;;;;;;;5099663;28;20693;-80
2023/11/17 07:05:11;;;;;;;3.87;2.80;;;;;;;;;;5097425;28;20439;-80
2023/11/17 07:07:39;;;;;;;5.03;3.60;;;;;;;;;;5102201;28;20458;-78
2023/11/17 07:10:14;;;;;;;5.33;3.53;;;;;;;;;;5100325;28;20611;-78
2023/11/17 07:12:42;;;;;;;5.17;3.57;;;;;;;;;;5096891;28;20520;-78
2023/11/17 07:15:13;;;;;;;3.80;2.80;;;;;;;;;;5097621;28;20488;-79
2023/11/17 07:17:41;;;;;;;4.63;3.17;;;;;;;;;;5095631;28;20463;-80
2023/11/17 07:20:12;;;;;;;4.20;3.07;;;;;;;;;;5097107;28;20448;-78
2023/11/17 07:22:40;;;;;;;6.30;3.80;;;;;;;;;;5096655;28;20456;-79
2023/11/17 07:25:10;;;;;;;4.60;3.27;;;;;;;;;;5099440;28;20448;-79
2023/11/17 07:27:44;;;;;;;3.83;2.47;;;;;;;;;;5104865;28;20548;-79
2023/11/17 07:30:19;;;;;;;5.23;3.43;;;;;;;;;;5106041;28;20599;-79
2023/11/17 07:32:47;;;;;;;5.93;3.47;;;;;;;;;;5101364;28;20685;-80
2023/11/17 07:35:17;;;;;;;4.90;3.40;;;;;;;;;;5102455;28;20900;-80
2023/11/17 07:37:45;;;;;;;3.90;2.90;;;;;;;;;;5106971;28;20451;-81
2023/11/17 07:40:18;;;;;;;4.80;2.87;;;;;;;;;;5110091;28;20455;-81
2023/11/17 07:42:46;;;;;;;4.30;2.50;;;;;;;;;;5107974;28;20490;-78
2023/11/17 07:45:16;;;;;;;4.30;2.90;;;;;;;;;;5106215;28;20466;-80
2023/11/17 07:47:45;;;;;;;4.17;3.00;;;;;;;;;;5106797;28;20771;-79
2023/11/17 07:50:15;;;;;;;4.27;2.83;;;;;;;;;;5102843;28;21577;-79
2023/11/17 07:52:45;;;;;;;5.50;2.67;;;;;;;;;;5104709;28;20512;-78
2023/11/17 07:55:17;;;;;;;4.40;2.53;;;;;;;;;;5103060;28;20447;-78
2023/11/17 07:57:45;;;;;;;3.23;1.77;;;;;;;;;;5099622;28;20467;-80
2023/11/17 08:00:27;;;;;;;3.93;1.73;;;;;;;;;;5096792;28;20445;-81
2023/11/17 08:02:55;;;;;;;3.60;1.93;;;;;;;;;;5103486;28;20463;-81
2023/11/17 08:05:23;;;;;;;2.83;1.50;;;;;;;;;;5103851;28;20747;-80
2023/11/17 08:07:54;;;;;;;3.37;1.70;;;;;;;;;;5104561;28;20447;-81
2023/11/17 08:10:21;;;;;;;2.40;1.37;;;;;;;;;;5102984;28;20449;-80
2023/11/17 08:12:49;;;;;;;3.00;1.87;;;;;;;;;;5102645;28;20471;-80
2023/11/17 08:15:18;;;;;;;2.70;2.30;;;;;;;;;;5105302;28;20462;-79
2023/11/17 08:17:47;;;;;;;2.70;1.73;;;;;;;;;;5105345;28;20924;-80
2023/11/17 08:20:16;;;;;;;2.40;1.40;;;;;;;;;;5101353;28;20459;-81
2023/11/17 08:22:54;;;;;;;5.57;1.47;;;;;;;;;;5106280;28;20531;-79
2023/11/17 08:25:29;;;;;;;4.40;1.87;;;;;;;;;;5104550;28;20507;-80
2023/11/17 08:27:58;;;;;;;2.53;1.33;;;;;;;;;;5096255;28;20460;-79
2023/11/17 08:30:26;;;;;;;4.57;1.80;;;;;;;;;;5086807;28;20466;-81
2023/11/17 08:32:54;;;;;;;2.87;1.70;;;;;;;;;;5088907;28;20681;-80
2023/11/17 08:35:22;;;;;;;3.30;1.70;;;;;;;;;;5099656;28;20498;-80
2023/11/17 08:37:52;;;;;;;3.50;1.60;;;;;;;;;;5102080;28;20471;-79
2023/11/17 08:40:20;;;;;;;3.70;1.90;;;;;;;;;;5101540;28;20452;-81
2023/11/17 08:42:50;;;;;;;3.43;2.30;;;;;;;;;;5104199;28;20485;-80
2023/11/17 08:45:18;;;;;;;4.00;1.87;;;;;;;;;;5102924;28;20444;-79
2023/11/17 08:47:48;;;;;;;3.30;1.63;;;;;;;;;;5108109;28;20481;-80
2023/11/17 08:50:19;;;;;;;3.10;2.20;;;;;;;;;;5104398;28;20479;-78
2023/11/17 08:52:49;;;;;;;3.13;1.53;;;;;;;;;;5103723;28;20467;-80
2023/11/17 08:55:17;;;;;;;3.17;2.17;;;;;;;;;;5101932;28;20466;-81
2023/11/17 08:57:46;;;;;;;2.77;2.03;;;;;;;;;;5103409;28;20444;-80
2023/11/17 09:00:24;;;;;;;3.67;2.40;;;;;;;;;;5104733;28;20460;-81
2023/11/17 09:02:53;;;;;;;5.17;2.53;;;;;;;;;;5102286;28;20455;-80
2023/11/17 09:05:21;;;;;;;4.03;2.50;;;;;;;;;;5105572;28;20553;-81
2023/11/17 09:07:50;;;;;;;7.00;2.33;;;;;;;;;;5097965;28;20460;-79
2023/11/17 09:10:19;;;;;;;3.00;2.03;;;;;;;;;;5094829;28;20546;-79
2023/11/17 09:12:49;;;;;;;4.33;2.37;;;;;;;;;;5098713;28;20807;-80
2023/11/17 09:15:19;;;;;;;2.93;1.60;;;;;;;;;;5080149;28;20534;-80
2023/11/17 09:17:50;;;;;;;3.43;1.93;;;;;;;;;;5091972;28;20464;-80
2023/11/17 09:20:19;;;;;;;2.63;1.53;;;;;;;;;;5092703;28;20471;-79
2023/11/17 09:22:47;;;;;;;2.80;1.60;;;;;;;;;;5085936;28;20459;-80
2023/11/17 09:25:19;;;;;;;3.80;1.70;;;;;;;;;;5097019;28;20463;-80
2023/11/17 09:27:47;;;;;;;4.47;2.27;;;;;;;;;;5100611;28;20632;-79
2023/11/17 09:30:19;;;;;;;3.20;2.13;;;;;;;;;;5102087;28;20495;-81
2023/11/17 09:32:48;;;;;;;2.80;1.80;;;;;;;;;;5101477;28;20555;-77
2023/11/17 09:35:21;;;;;;;3.00;1.90;;;;;;;;;;5093603;28;20484;-83
2023/11/17 09:37:50;;;;;;;3.63;1.70;;;;;;;;;;5097784;28;20456;-81
2023/11/17 09:40:21;;;;;;;3.50;1.53;;;;;;;;;;5095654;28;20448;-81
2023/11/17 09:42:52;;;;;;;2.60;1.57;;;;;;;;;;5097363;28;20518;-80
2023/11/17 09:45:26;;;;;;;2.47;1.70;;;;;;;;;;5098214;28;20525;-79
2023/11/17 09:47:57;;;;;;;2.50;1.53;;;;;;;;;;5097885;28;21107;-81
2023/11/17 09:50:26;;;;;;;3.70;2.50;;;;;;;;;;5101950;28;20472;-78
2023/11/17 09:52:55;;;;;;;2.47;1.40;;;;;;;;;;5101686;28;20518;-81
2023/11/17 09:55:27;;;;;;;4.83;1.90;;;;;;;;;;5097080;28;20978;-81
2023/11/17 09:57:56;;;;;;;2.70;1.47;;;;;;;;;;5099171;28;21076;-82
2023/11/17 10:00:31;;;;;;;5.60;1.67;;;;;;;;;;5104060;28;20523;-80
2023/11/17 10:03:09;;;;;;;2.07;0.87;;;;;;;;;;5090970;28;20466;-83
2023/11/17 10:05:41;;;;;;;7.23;2.00;;;;;;;;;;5094475;28;20444;-81
2023/11/17 10:08:12;;;;;;;2.63;1.47;;;;;;;;;;5095587;28;20818;-78
2023/11/17 10:10:42;;;;;;;2.37;1.50;;;;;;;;;;5084133;28;20537;-78
2023/11/17 10:13:12;;;;;;;2.03;1.20;;;;;;;;;;5101293;28;20453;-80
2023/11/17 10:15:44;;;;;;;2.43;1.27;;;;;;;;;;5095321;28;20843;-79
2023/11/17 10:18:14;;;;;;;3.50;1.20;;;;;;;;;;5097273;28;21045;-79
2023/11/17 10:20:43;;;;;;;3.00;1.97;;;;;;;;;;5096437;28;20468;-80
2023/11/17 10:23:12;;;;;;;3.27;1.57;;;;;;;;;;5095031;28;20479;-80
2023/11/17 10:25:43;;;;;;;2.90;2.00;;;;;;;;;;5105500;28;20447;-78
2023/11/17 10:28:27;;;;;;;2.80;2.00;;;;;;;;;;5103370;28;21001;-83
2023/11/17 10:30:59;;;;;;;4.73;2.60;;;;;;;;;;5110776;28;20487;-82
2023/11/17 10:33:40;;;;;;;4.70;2.47;;;;;;;;;;5108897;28;20536;-80
2023/11/17 10:36:16;;;;;;;3.17;2.47;;;;;;;;;;5110261;28;20763;-80
2023/11/17 10:38:46;;;;;;;3.33;2.70;;;;;;;;;;5080063;28;20530;-80
2023/11/17 10:41:17;;;;;;;4.70;3.57;;;;;;;;;;5081838;28;20506;-80
2023/11/17 10:43:49;;;;;;;5.17;3.60;;;;;;;;;;5088702;28;20458;-81
2023/11/17 10:46:21;;;;;;;5.20;4.70;;;;;;;;;;5080467;28;20444;-80
2023/11/17 10:48:52;;;;;;;6.23;5.17;;;;;;;;;;5079145;28;20456;-79
2023/11/17 10:51:22;;;;;;;4.70;4.20;;;;;;;;;;5078931;28;20516;-79
2023/11/17 10:54:04;;;;;;;5.70;4.77;;;;;;;;;;5058797;28;20453;-78
2023/11/17 10:56:32;;;;;;;6.50;5.30;;;;;;;;;;5076620;28;20436;-80
2023/11/17 10:59:05;;;;;;;5.27;4.77;;;;;;;;;;5073286;28;21049;-79
2023/11/17 11:01:35;;;;;;;5.20;4.67;;;;;;;;;;5085904;28;20694;-81
2023/11/17 11:41:11;;;;;;;3.83;3.17;;;;;;;;;;5020943;22;20464;-77
2023/11/17 11:43:40;;;;;;;4.00;3.13;;;;;;;;;;5048647;28;20463;-79
2023/11/17 11:46:18;;;;;;;5.50;3.57;;;;;;;;;;5042349;28;20511;-77
2023/11/17 11:48:47;;;;;;;4.83;3.73;;;;;;;;;;5042614;28;20505;-80
2023/11/17 11:51:16;;;;;;;4.27;3.40;;;;;;;;;;5042774;28;20490;-80
2023/11/17 11:53:49;;;;;;;7.00;4.50;;;;;;;;;;5041728;28;20557;-78
2023/11/17 11:56:18;;;;;;;4.33;3.63;;;;;;;;;;5037222;28;20466;-77
2023/11/17 11:58:48;;;;;;;5.97;3.30;;;;;;;;;;5043217;28;20693;-79
2023/11/17 12:01:17;;;;;;;3.07;2.17;;;;;;;;;;5042833;28;20462;-79
2023/11/17 12:03:47;;;;;;;4.50;3.30;;;;;;;;;;5034971;28;20549;-81
2023/11/17 12:06:22;;;;;;;3.97;3.40;;;;;;;;;;5029985;28;20608;-81
2023/11/17 12:08:54;;;;;;;3.43;2.83;;;;;;;;;;5031480;28;20470;-78
2023/11/17 12:11:23;;;;;;;3.90;3.30;;;;;;;;;;5041939;28;20903;-80
2023/11/17 12:13:54;;;;;;;3.47;2.90;;;;;;;;;;5048401;28;20500;-80
2023/11/17 12:16:25;;;;;;;4.10;2.80;;;;;;;;;;5049668;28;20459;-79
2023/11/17 12:18:53;;;;;;;4.33;3.30;;;;;;;;;;5042966;28;20870;-79
2023/11/17 12:21:22;;;;;;;4.90;3.17;;;;;;;;;;5034175;28;20463;-79
2023/11/17 12:26:32;;;;;;;4.07;3.67;;;;;;;;;;5030966;28;20470;-81
2023/11/17 12:29:01;;;;;;;4.60;3.50;;;;;;;;;;5048487;28;21111;-81
2023/11/17 12:31:30;;;;;;;4.60;2.93;;;;;;;;;;5050202;28;20471;-81
2023/11/17 12:33:58;;;;;;;3.30;2.50;;;;;;;;;;5053686;28;20490;-79
2023/11/17 12:36:26;;;;;;;3.33;2.67;;;;;;;;;;5038274;28;20557;-82
2023/11/17 12:38:57;;;;;;;4.20;2.37;;;;;;;;;;5036031;28;20473;-82
2023/11/17 12:41:26;;;;;;;3.60;3.00;;;;;;;;;;5035679;28;20493;-80
2023/11/17 12:43:58;;;;;;;3.20;2.37;;;;;;;;;;5034931;28;20454;-83
2023/11/17 12:46:28;;;;;;;2.80;2.07;;;;;;;;;;5041471;28;20532;-80
2023/11/17 12:48:58;;;;;;;3.40;2.53;;;;;;;;;;5038236;28;20480;-81
2023/11/17 12:51:26;;;;;;;4.50;3.60;;;;;;;;;;5040333;28;20501;-79
2023/11/17 12:53:56;;;;;;;4.80;3.00;;;;;;;;;;5037757;28;20459;-80
2023/11/17 12:56:24;;;;;;;3.50;3.20;;;;;;;;;;5040056;28;20458;-80
2023/11/17 12:58:55;;;;;;;4.03;3.63;;;;;;;;;;5040323;28;20438;-80
2023/11/17 13:01:24;;;;;;;4.57;3.10;;;;;;;;;;5040524;28;20439;-81
2023/11/17 13:03:55;;;;;;;4.37;3.07;;;;;;;;;;5039308;28;20482;-80
2023/11/17 13:06:25;;;;;;;5.20;4.57;;;;;;;;;;5039735;28;20442;-80
2023/11/17 13:08:53;;;;;;;4.83;4.33;;;;;;;;;;5041656;28;20459;-79
2023/11/17 13:11:24;;;;;;;4.87;3.90;;;;;;;;;;5041193;28;20549;-83
2023/11/17 13:13:52;;;;;;;4.63;3.60;;;;;;;;;;5035970;28;20490;-81
2023/11/17 13:16:20;;;;;;;4.20;3.80;;;;;;;;;;5021422;28;20882;-80
2023/11/17 13:18:51;;;;;;;4.03;3.57;;;;;;;;;;5031292;28;20521;-80
2023/11/17 13:21:20;;;;;;;4.70;4.20;;;;;;;;;;5036665;28;20493;-79
2023/11/17 13:23:49;;;;;;;3.67;3.27;;;;;;;;;;5034048;28;20553;-81
2023/11/17 13:26:20;;;;;;;4.50;4.10;;;;;;;;;;5037859;28;20569;-79
2023/11/17 13:28:49;;;;;;;4.67;4.17;;;;;;;;;;5041093;28;20475;-80
2023/11/17 13:31:18;;;;;;;6.20;5.03;;;;;;;;;;5044446;28;20482;-80
2023/11/17 13:33:46;;;;;;;4.50;3.77;;;;;;;;;;5041887;28;20490;-79
2023/11/17 13:36:17;;;;;;;3.87;3.53;;;;;;;;;;5040297;28;20459;-79
2023/11/17 13:39:14;;;;;;;3.90;3.20;;;;;;;;;;5048102;28;20462;-79
2023/11/17 13:41:42;;;;;;;5.00;4.50;;;;;;;;;;5037019;28;20489;-80
2023/11/17 13:44:10;;;;;;;5.17;4.17;;;;;;;;;;5052694;28;20523;-77
2023/11/17 13:46:49;;;;;;;4.40;4.00;;;;;;;;;;5042399;28;20446;-81
2023/11/17 13:49:16;;;;;;;5.77;4.07;;;;;;;;;;5027414;28;20490;-78
2023/11/17 13:51:44;;;;;;;4.53;4.13;;;;;;;;;;5041419;28;20485;-78
2023/11/17 13:54:15;;;;;;;5.40;4.70;;;;;;;;;;5041887;28;20473;-80
2023/11/17 13:56:47;;;;;;;5.43;4.77;;;;;;;;;;5039752;28;20478;-78
2023/11/17 13:59:23;;;;;;;5.03;4.53;;;;;;;;;;5039441;28;20770;-80
2023/11/17 14:01:52;;;;;;;4.33;3.70;;;;;;;;;;5039483;28;20499;-79
2023/11/17 14:04:30;;;;;;;3.90;3.27;;;;;;;;;;5041837;28;20569;-79
2023/11/17 14:06:57;;;;;;;3.40;2.73;;;;;;;;;;5043656;28;20567;-79
2023/11/17 14:09:27;;;;;;;3.23;2.40;;;;;;;;;;5043517;28;20481;-80
2023/11/17 14:11:57;;;;;;;3.57;3.27;;;;;;;;;;5046829;28;20473;-80
2023/11/17 14:14:26;;;;;;;2.90;2.23;;;;;;;;;;5061392;28;20492;-82
2023/11/17 14:16:55;;;;;;;3.83;3.00;;;;;;;;;;5046507;28;20504;-80
2023/11/17 14:19:27;;;;;;;3.47;3.03;;;;;;;;;;5041913;28;20514;-79
2023/11/17 14:21:55;;;;;;;4.60;3.00;;;;;;;;;;5041584;28;20462;-79
2023/11/17 14:24:23;;;;;;;3.97;2.93;;;;;;;;;;5033092;28;20529;-83
2023/11/17 14:26:59;;;;;;;2.90;2.47;;;;;;;;;;5037310;28;20445;-80
2023/11/17 14:29:33;;;;;;;4.40;2.70;;;;;;;;;;5033558;28;20469;-78
2023/11/17 14:35:33;;;;;;;;;;;;;;;;;;;;;
2023/11/17 14:46:33;;;;;;;4.13;3.30;;;;;;;;;;5066029;28;20497;-79
2023/11/17 14:49:04;;;;;;;4.37;3.53;;;;;;;;;;5065753;28;20441;-80
2023/11/17 14:51:32;;;;;;;4.10;3.43;;;;;;;;;;5067361;28;20519;-80
2023/11/17 14:54:00;;;;;;;4.60;2.80;;;;;;;;;;5066505;28;20449;-79
2023/11/17 14:56:29;;;;;;;3.80;2.93;;;;;;;;;;5057265;28;20469;-81
2023/11/17 14:58:58;;;;;;;8.83;3.27;;;;;;;;;;5051529;28;20479;-78
2023/11/17 15:01:27;;;;;;;4.27;3.80;;;;;;;;;;5069089;28;20509;-79
2023/11/17 15:03:54;;;;;;;4.33;3.80;;;;;;;;;;5071125;28;20457;-80
2023/11/17 15:06:24;;;;;;;6.50;4.33;;;;;;;;;;5066366;28;20477;-79
2023/11/17 15:08:53;;;;;;;5.20;4.70;;;;;;;;;;5059434;28;20458;-79
2023/11/17 15:11:22;;;;;;;5.50;4.97;;;;;;;;;;5057642;28;20894;-79
2023/11/17 15:13:51;;;;;;;11.10;5.43;;;;;;;;;;5066451;28;20544;-81
2023/11/17 15:16:23;;;;;;;9.63;8.37;;;;;;;;;;5063500;28;20472;-79
2023/11/17 15:18:52;;;;;;;7.70;6.10;;;;;;;;;;5066371;28;20521;-80
2023/11/17 15:21:23;;;;;;;6.60;5.90;;;;;;;;;;5061175;28;20533;-81
2023/11/17 15:23:53;;;;;;;6.70;5.67;;;;;;;;;;5061754;28;21132;-80
2023/11/17 15:26:25;;;;;;;9.43;8.03;;;;;;;;;;5061484;28;20471;-81
2023/11/17 15:28:53;;;;;;;10.53;8.00;;;;;;;;;;5061650;28;20457;-78
2023/11/17 15:31:29;;;;;;;9.40;7.13;;;;;;;;;;5064666;28;20507;-80
2023/11/17 15:34:09;;;;;;;8.20;6.33;;;;;;;;;;5060819;28;20471;-78
2023/11/17 15:36:37;;;;;;;7.60;6.20;;;;;;;;;;5078831;28;20445;-80
2023/11/17 15:39:14;;;;;;;7.33;6.20;;;;;;;;;;5059742;28;20465;-80
2023/11/17 15:41:41;;;;;;;8.57;6.70;;;;;;;;;;5065602;28;20472;-81
2023/11/17 15:44:18;;;;;;;7.07;5.07;;;;;;;;;;5077949;28;20468;-82
2023/11/17 15:46:46;;;;;;;8.13;7.13;;;;;;;;;;5076465;28;20433;-80
2023/11/17 15:49:15;;;;;;;10.30;6.57;;;;;;;;;;5070868;28;20444;-81